createdAt,value
2018-10-21T00:01:45.868Z,41.20
2018-10-21T00:04:26.199Z,41.03
2018-10-21T00:07:00.637Z,40.77
2018-10-21T00:09:40.453Z,39.80
2018-10-21T00:12:15.090Z,39.83
2018-10-21T00:14:49.859Z,39.60
2018-10-21T00:17:24.143Z,38.67
2018-10-21T00:19:58.699Z,38.20
2018-10-21T00:22:33.341Z,37.80
2018-10-21T00:25:07.970Z,37.43
2018-10-21T00:27:42.516Z,38.90
2018-10-21T00:30:22.461Z,36.97
2018-10-21T00:32:57.083Z,36.50
2018-10-21T00:35:37.561Z,38.00
2018-10-21T00:38:11.892Z,37.13
2018-10-21T00:40:46.535Z,37.30
2018-10-21T00:43:21.103Z,37.00
2018-10-21T00:45:55.529Z,36.90
2018-10-21T00:48:30.445Z,37.17
2018-10-21T00:51:05.419Z,36.70
2018-10-21T00:53:40.223Z,38.40
2018-10-21T00:56:15.223Z,35.47
2018-10-21T00:58:49.838Z,37.33
2018-10-21T01:01:24.588Z,36.03
2018-10-21T01:06:40.751Z,36.60
2018-10-21T01:09:16.293Z,36.80
2018-10-21T01:11:51.372Z,36.90
2018-10-21T01:17:07.075Z,37.17
2018-10-21T01:19:41.755Z,37.53
2018-10-21T01:24:56.284Z,37.27
2018-10-21T01:27:31.204Z,36.90
2018-10-21T01:30:12.456Z,36.67
2018-10-21T01:32:47.196Z,38.70
2018-10-21T01:35:22.367Z,40.07
2018-10-21T01:37:56.765Z,40.20
2018-10-21T01:40:35.156Z,41.80
2018-10-21T01:43:11.757Z,40.87
2018-10-21T01:45:46.308Z,39.53
2018-10-21T01:48:22.048Z,40.33
2018-10-21T01:50:56.779Z,40.20
2018-10-21T01:53:37.455Z,41.60
2018-10-21T01:59:03.107Z,40.00
2018-10-21T02:01:37.641Z,40.27
2018-10-21T02:04:12.320Z,39.47
2018-10-21T02:06:47.052Z,38.37
2018-10-21T02:09:21.903Z,39.77
2018-10-21T02:11:56.381Z,40.57
2018-10-21T02:14:31.984Z,39.47
2018-10-21T02:17:06.533Z,38.23
2018-10-21T02:19:40.976Z,39.27
2018-10-21T02:22:15.407Z,38.47
2018-10-21T02:24:50.878Z,39.20
2018-10-21T02:27:25.302Z,38.27
2018-10-21T02:30:00.452Z,39.00
2018-10-21T02:35:17.026Z,39.90
2018-10-21T02:37:51.749Z,40.20
2018-10-21T02:41:40.795Z,40.73
2018-10-21T02:44:17.689Z,40.63
2018-10-21T02:46:54.469Z,37.47
2018-10-21T02:49:28.901Z,39.83
2018-10-21T02:52:09.656Z,38.60
2018-10-21T02:54:44.581Z,38.23
2018-10-21T02:57:19.390Z,38.30
2018-10-21T02:59:54.010Z,39.60
2018-10-21T03:02:28.412Z,38.37
2018-10-21T03:05:02.906Z,37.90
2018-10-21T03:07:37.449Z,38.50
2018-10-21T03:10:17.234Z,38.37
2018-10-21T03:12:51.757Z,37.97
2018-10-21T03:15:26.265Z,41.13
2018-10-21T03:18:00.739Z,38.90
2018-10-21T03:20:35.570Z,37.63
2018-10-21T03:23:10.068Z,37.63
2018-10-21T03:25:45.092Z,37.63
2018-10-21T03:28:19.600Z,36.43
2018-10-21T03:33:34.501Z,36.63
2018-10-21T03:36:09.032Z,36.50
2018-10-21T03:38:43.864Z,37.63
2018-10-21T03:41:18.540Z,36.50
2018-10-21T03:43:53.169Z,36.50
2018-10-21T03:46:38.815Z,35.90
2018-10-21T03:51:53.424Z,36.30
2018-10-21T03:54:28.184Z,36.53
2018-10-21T03:57:02.683Z,37.27
2018-10-21T03:59:37.488Z,35.03
2018-10-21T04:04:52.720Z,36.43
2018-10-21T04:07:27.260Z,35.90
2018-10-21T04:10:01.937Z,37.07
2018-10-21T04:12:37.108Z,34.33
2018-10-21T04:15:17.285Z,35.53
2018-10-21T04:17:52.132Z,35.63
2018-10-21T04:20:27.072Z,36.97
2018-10-21T04:23:02.469Z,37.20
2018-10-21T04:25:38.657Z,37.13
2018-10-21T04:28:13.159Z,37.53
2018-10-21T04:30:47.904Z,37.77
2018-10-21T04:33:53.272Z,36.80
2018-10-21T04:39:31.684Z,37.63
2018-10-21T04:42:06.001Z,37.30
2018-10-21T04:44:45.841Z,39.20
2018-10-21T04:47:20.571Z,37.20
2018-10-21T04:49:55.164Z,38.40
2018-10-21T04:52:31.252Z,36.47
2018-10-21T04:55:09.145Z,36.37
2018-10-21T04:57:45.025Z,36.03
2018-10-21T05:00:20.635Z,37.20
2018-10-21T05:02:55.876Z,36.00
2018-10-21T05:05:31.521Z,38.47
2018-10-21T05:08:06.804Z,35.43
2018-10-21T05:10:41.136Z,37.10
2018-10-21T05:13:15.799Z,37.17
2018-10-21T05:15:50.293Z,37.13
2018-10-21T05:18:25.192Z,36.70
2018-10-21T05:20:59.924Z,36.60
2018-10-21T05:23:34.474Z,36.77
2018-10-21T05:26:08.977Z,37.70
2018-10-21T05:28:43.292Z,36.83
2018-10-21T05:31:17.791Z,37.03
2018-10-21T05:33:58.300Z,34.87
2018-10-21T05:36:33.204Z,35.93
2018-10-21T05:39:09.346Z,35.67
2018-10-21T05:41:43.727Z,38.00
2018-10-21T05:44:18.228Z,36.40
2018-10-21T05:46:53.806Z,36.57
2018-10-21T05:49:34.133Z,39.10
2018-10-21T05:52:08.618Z,36.83
2018-10-21T05:54:44.073Z,38.37
2018-10-21T05:57:18.751Z,35.97
2018-10-21T05:59:54.115Z,35.33
2018-10-21T06:02:29.463Z,34.23
2018-10-21T06:05:09.804Z,36.60
2018-10-21T06:07:44.857Z,34.63
2018-10-21T06:10:19.651Z,36.43
2018-10-21T06:15:34.125Z,35.30
2018-10-21T06:18:11.239Z,34.77
2018-10-21T06:20:48.432Z,34.00
2018-10-21T06:23:22.872Z,35.47
2018-10-21T06:25:57.542Z,34.73
2018-10-21T06:28:32.194Z,34.80
2018-10-21T06:31:06.976Z,33.83
2018-10-21T06:33:41.910Z,34.57
2018-10-21T06:36:17.196Z,34.70
2018-10-21T06:38:51.531Z,34.77
2018-10-21T06:41:25.933Z,34.40
2018-10-21T06:44:00.401Z,33.33
2018-10-21T06:46:35.408Z,34.13
2018-10-21T06:49:10.028Z,32.93
2018-10-21T06:51:45.001Z,33.43
2018-10-21T06:54:20.240Z,32.47
2018-10-21T06:59:35.659Z,30.37
2018-10-21T07:02:10.359Z,31.57
2018-10-21T07:04:45.420Z,29.33
2018-10-21T07:07:25.671Z,32.27
2018-10-21T07:10:00.517Z,33.10
2018-10-21T07:12:35.167Z,33.00
2018-10-21T07:15:10.263Z,32.20
2018-10-21T07:17:45.634Z,30.93
2018-10-21T07:20:20.429Z,30.00
2018-10-21T07:23:00.862Z,28.57
2018-10-21T07:25:35.715Z,27.97
2018-10-21T07:28:16.286Z,27.53
2018-10-21T07:30:50.814Z,26.67
2018-10-21T07:33:25.300Z,26.13
2018-10-21T07:36:00.232Z,26.57
2018-10-21T07:38:35.429Z,26.03
2018-10-21T07:41:10.097Z,27.60
2018-10-21T07:43:45.307Z,27.33
2018-10-21T07:46:20.567Z,26.30
2018-10-21T07:48:55.281Z,25.70
2018-10-21T07:51:30.051Z,24.60
2018-10-21T07:54:04.799Z,23.20
2018-10-21T07:56:39.706Z,22.17
2018-10-21T07:59:14.440Z,22.00
2018-10-21T08:01:54.693Z,22.67
2018-10-21T08:04:34.481Z,23.93
2018-10-21T08:07:20.106Z,23.67
2018-10-21T08:09:54.882Z,22.57
2018-10-21T08:12:29.722Z,22.97
2018-10-21T08:15:04.265Z,22.67
2018-10-21T08:17:39.029Z,22.27
2018-10-21T08:20:16.878Z,23.13
2018-10-21T08:22:57.263Z,21.93
2018-10-21T08:25:37.432Z,21.47
2018-10-21T08:28:12.987Z,20.10
2018-10-21T08:30:47.988Z,19.83
2018-10-21T08:33:22.296Z,19.60
2018-10-21T08:36:02.541Z,19.60
2018-10-21T08:38:37.715Z,19.03
2018-10-21T08:41:18.153Z,19.30
2018-10-21T08:43:53.028Z,17.97
2018-10-21T08:46:27.681Z,17.47
2018-10-21T08:49:02.252Z,17.87
2018-10-21T08:51:44.521Z,16.67
2018-10-21T08:54:19.117Z,16.77
2018-10-21T08:56:53.913Z,17.50
2018-10-21T08:59:28.799Z,17.33
2018-10-21T09:02:03.933Z,16.57
2018-10-21T09:04:44.057Z,16.40
2018-10-21T09:07:24.207Z,16.77
2018-10-21T09:09:59.999Z,15.73
2018-10-21T09:12:40.276Z,15.87
2018-10-21T09:15:16.095Z,16.27
2018-10-21T09:17:51.144Z,16.43
2018-10-21T09:23:11.749Z,13.93
2018-10-21T09:25:49.691Z,14.07
2018-10-21T09:28:24.829Z,14.10
2018-10-21T09:33:40.446Z,14.27
2018-10-21T09:36:21.077Z,13.53
2018-10-21T09:39:01.780Z,15.10
2018-10-21T09:41:36.637Z,13.27
2018-10-21T09:44:17.269Z,12.93
2018-10-21T09:46:57.440Z,12.33
2018-10-21T09:52:12.414Z,10.37
2018-10-21T09:54:47.303Z,9.33
2018-10-21T10:00:02.039Z,8.90
2018-10-21T10:02:42.118Z,8.33
2018-10-21T10:05:16.545Z,8.07
2018-10-21T10:07:53.339Z,7.70
2018-10-21T10:10:28.522Z,7.50
2018-10-21T10:13:03.212Z,8.33
2018-10-21T10:15:38.441Z,8.40
2018-10-21T10:18:19.609Z,8.07
2018-10-21T10:20:54.544Z,9.70
2018-10-21T10:23:33.868Z,9.70
2018-10-21T10:26:09.224Z,9.20
2018-10-21T10:28:45.533Z,9.60
2018-10-21T10:31:20.663Z,9.13
2018-10-21T10:36:46.549Z,7.90
2018-10-21T10:39:21.882Z,6.27
2018-10-21T10:41:57.820Z,5.33
2018-10-21T10:44:32.580Z,4.97
2018-10-21T10:47:08.926Z,5.30
2018-10-21T10:49:43.655Z,4.23
2018-10-21T10:52:18.443Z,4.57
2018-10-21T10:57:33.147Z,4.97
2018-10-21T11:00:09.443Z,5.20
2018-10-21T11:02:44.624Z,3.70
2018-10-21T11:08:04.221Z,3.90
2018-10-21T11:10:39.601Z,3.77
2018-10-21T11:13:14.510Z,3.50
2018-10-21T11:15:57.354Z,3.97
2018-10-21T11:18:32.176Z,4.10
2018-10-21T11:21:12.527Z,4.20
2018-10-21T11:23:47.039Z,3.90
2018-10-21T11:26:23.211Z,4.10
2018-10-21T11:28:58.359Z,3.67
2018-10-21T11:31:33.145Z,3.53
2018-10-21T11:34:13.733Z,3.57
2018-10-21T11:36:49.372Z,3.23
2018-10-21T11:39:24.349Z,2.70
2018-10-21T11:42:06.225Z,2.40
2018-10-21T11:44:42.384Z,2.30
2018-10-21T11:47:17.452Z,2.60
2018-10-21T11:49:51.848Z,2.90
2018-10-21T11:52:31.914Z,2.27
2018-10-21T11:55:08.308Z,2.60
2018-10-21T11:57:43.338Z,2.80
2018-10-21T12:00:17.981Z,3.33
2018-10-21T12:02:58.561Z,2.87
2018-10-21T12:05:33.190Z,3.00
2018-10-21T12:08:07.661Z,2.80
2018-10-21T12:10:42.081Z,2.63
2018-10-21T12:13:16.801Z,2.37
2018-10-21T12:15:52.364Z,2.50
2018-10-21T12:21:13.552Z,2.70
2018-10-21T12:23:47.972Z,2.60
2018-10-21T12:26:22.639Z,2.90
2018-10-21T12:31:37.011Z,2.80
2018-10-21T12:34:11.796Z,2.60
2018-10-21T12:36:46.372Z,2.80
2018-10-21T12:39:20.826Z,2.70
2018-10-21T12:42:00.713Z,2.80
2018-10-21T12:44:35.469Z,3.00
2018-10-21T12:47:10.536Z,2.87
2018-10-21T12:49:50.946Z,2.93
2018-10-21T12:52:25.542Z,2.90
2018-10-21T12:55:00.361Z,3.20
2018-10-21T12:57:35.189Z,3.23
2018-10-21T13:05:31.393Z,3.20
2018-10-21T13:08:10.691Z,3.40
2018-10-21T13:10:50.898Z,3.03
2018-10-21T13:13:25.603Z,3.20
2018-10-21T13:16:02.038Z,3.07
2018-10-21T13:18:40.360Z,2.83
2018-10-21T13:21:14.874Z,3.10
2018-10-21T13:23:49.335Z,2.90
2018-10-21T13:26:29.220Z,3.57
2018-10-21T13:29:04.403Z,3.37
2018-10-21T13:31:38.764Z,4.00
2018-10-21T13:34:16.861Z,3.17
2018-10-21T13:36:53.732Z,3.43
2018-10-21T13:39:34.163Z,3.80
2018-10-21T13:42:09.033Z,3.70
2018-10-21T13:44:43.968Z,3.70
2018-10-21T13:47:19.439Z,3.80
2018-10-21T13:50:04.655Z,3.50
2018-10-21T13:52:39.642Z,3.67
2018-10-21T13:55:14.343Z,3.87
2018-10-21T13:57:49.013Z,3.97
2018-10-21T14:00:23.689Z,4.37
2018-10-21T14:02:59.099Z,4.30
2018-10-21T14:05:33.811Z,4.37
2018-10-21T14:08:08.828Z,4.50
2018-10-21T14:10:43.285Z,4.40
2018-10-21T14:13:23.278Z,3.93
2018-10-21T14:16:14.923Z,3.73
2018-10-21T14:21:29.905Z,3.70
2018-10-21T14:24:04.780Z,3.73
2018-10-21T14:26:39.415Z,3.83
2018-10-21T14:29:14.244Z,3.67
2018-10-21T14:31:54.079Z,3.83
2018-10-21T14:34:34.986Z,3.87
2018-10-21T14:37:11.591Z,4.20
2018-10-21T14:39:46.285Z,3.67
2018-10-21T14:42:21.949Z,3.77
2018-10-21T14:44:56.526Z,3.50
2018-10-21T14:47:31.436Z,3.60
2018-10-21T14:50:06.119Z,3.63
2018-10-21T14:52:41.207Z,3.60
2018-10-21T14:55:16.573Z,3.70
2018-10-21T14:57:51.693Z,3.67
2018-10-21T15:00:26.210Z,3.70
2018-10-21T15:03:00.822Z,3.73
2018-10-21T15:08:15.835Z,3.93
2018-10-21T15:10:55.962Z,3.80
2018-10-21T15:13:30.848Z,3.57
2018-10-21T15:16:05.666Z,4.20
2018-10-21T15:18:46.092Z,3.80
2018-10-21T15:21:20.629Z,4.17
2018-10-21T15:23:55.137Z,4.10
2018-10-21T15:26:29.955Z,4.30
2018-10-21T15:29:09.736Z,4.70
2018-10-21T15:31:44.879Z,4.40
2018-10-21T15:34:20.242Z,4.57
2018-10-21T15:36:54.604Z,4.30
2018-10-21T15:39:29.572Z,4.80
2018-10-21T15:42:04.193Z,3.93
2018-10-21T15:44:38.976Z,3.90
2018-10-21T15:47:19.609Z,4.03
2018-10-21T15:49:53.933Z,4.20
2018-10-21T15:52:28.700Z,4.60
2018-10-21T15:57:43.508Z,4.30
2018-10-21T16:00:18.285Z,4.20
2018-10-21T16:02:52.720Z,4.30
2018-10-21T16:05:27.208Z,4.30
2018-10-21T16:08:01.703Z,4.77
2018-10-21T16:10:37.995Z,4.60
2018-10-21T16:13:12.390Z,4.83
2018-10-21T16:15:48.029Z,4.80
2018-10-21T16:18:23.512Z,4.63
2018-10-21T16:20:58.212Z,4.77
2018-10-21T16:23:33.233Z,4.87
2018-10-21T16:28:49.049Z,5.50
2018-10-21T16:31:23.480Z,4.53
2018-10-21T16:34:03.759Z,5.03
2018-10-21T16:36:39.038Z,4.73
2018-10-21T16:39:13.650Z,4.60
2018-10-21T16:41:48.244Z,5.00
2018-10-21T16:44:23.224Z,4.73
2018-10-21T16:47:03.837Z,4.63
2018-10-21T16:49:38.822Z,5.20
2018-10-21T16:52:13.608Z,5.00
2018-10-21T16:54:48.555Z,4.57
2018-10-21T16:57:24.248Z,5.17
2018-10-21T16:59:58.985Z,5.10
2018-10-21T17:02:34.010Z,5.10
2018-10-21T17:05:09.590Z,4.90
2018-10-21T17:07:49.976Z,5.33
2018-10-21T17:10:24.887Z,5.23
2018-10-21T17:12:59.711Z,5.43
2018-10-21T17:15:34.671Z,5.07
2018-10-21T17:18:14.819Z,5.87
2018-10-21T17:20:49.371Z,5.03
2018-10-21T17:23:23.767Z,5.23
2018-10-21T17:25:58.236Z,5.67
2018-10-21T17:28:32.755Z,5.90
2018-10-21T17:31:07.756Z,6.10
2018-10-21T17:33:42.605Z,5.70
2018-10-21T17:36:17.173Z,6.23
2018-10-21T17:44:23.316Z,6.27
2018-10-21T17:46:58.536Z,6.50
2018-10-21T17:49:38.492Z,6.30
2018-10-21T17:52:19.421Z,6.50
2018-10-21T17:54:54.280Z,7.33
2018-10-21T17:57:29.161Z,7.80
2018-10-21T18:00:03.536Z,8.17
2018-10-21T18:02:38.414Z,8.47
2018-10-21T18:05:14.915Z,9.50
2018-10-21T18:07:49.424Z,10.03
2018-10-21T18:10:23.908Z,9.60
2018-10-21T18:12:58.612Z,9.13
2018-10-21T18:15:33.842Z,9.00
2018-10-21T18:18:08.524Z,7.03
2018-10-21T18:20:42.964Z,6.63
2018-10-21T18:23:18.350Z,6.90
2018-10-21T18:25:52.768Z,6.97
2018-10-21T18:28:27.650Z,6.30
2018-10-21T18:31:02.117Z,6.60
2018-10-21T18:33:38.620Z,6.70
2018-10-21T18:36:13.437Z,7.03
2018-10-21T18:38:48.448Z,7.23
2018-10-21T18:41:23.981Z,6.70
2018-10-21T18:43:59.700Z,6.70
2018-10-21T18:46:34.512Z,7.33
2018-10-21T18:49:09.098Z,6.87
2018-10-21T18:51:53.630Z,7.30
2018-10-21T18:54:34.170Z,7.10
2018-10-21T18:57:11.809Z,6.90
2018-10-21T18:59:54.892Z,7.07
2018-10-21T19:02:30.640Z,7.43
2018-10-21T19:05:06.111Z,7.47
2018-10-21T19:07:40.637Z,6.83
2018-10-21T19:13:00.055Z,7.13
2018-10-21T19:15:32.294Z,6.93
2018-10-21T19:18:08.289Z,7.20
2018-10-21T19:20:44.209Z,7.40
2018-10-21T19:23:19.197Z,7.37
2018-10-21T19:25:53.859Z,7.53
2018-10-21T19:28:28.774Z,7.10
2018-10-21T19:31:03.899Z,7.57
2018-10-21T19:33:38.422Z,6.73
2018-10-21T19:36:13.675Z,7.37
2018-10-21T19:38:48.571Z,7.47
2018-10-21T19:41:23.353Z,6.83
2018-10-21T19:43:58.353Z,7.03
2018-10-21T19:46:32.864Z,7.43
2018-10-21T19:49:08.217Z,7.93
2018-10-21T19:51:42.834Z,8.10
2018-10-21T19:54:17.095Z,8.30
2018-10-21T19:56:54.031Z,9.13
2018-10-21T19:59:30.474Z,8.10
2018-10-21T20:02:05.244Z,7.73
2018-10-21T20:04:41.436Z,9.20
2018-10-21T20:07:16.903Z,9.20
2018-10-21T20:09:53.594Z,8.73
2018-10-21T20:12:28.110Z,9.37
2018-10-21T20:15:03.787Z,8.80
2018-10-21T20:17:38.133Z,9.10
2018-10-21T20:20:12.940Z,9.43
2018-10-21T20:22:47.852Z,8.90
2018-10-21T20:25:22.639Z,8.87
2018-10-21T20:27:57.368Z,9.20
2018-10-21T20:30:32.683Z,9.23
2018-10-21T20:33:07.390Z,8.70
2018-10-21T20:35:42.201Z,9.03
2018-10-21T20:38:19.530Z,8.80
2018-10-21T20:40:54.468Z,9.10
2018-10-21T20:43:29.052Z,9.13
2018-10-21T20:46:03.718Z,8.97
2018-10-21T20:48:38.268Z,9.03
2018-10-21T20:51:12.557Z,9.37
2018-10-21T20:53:47.281Z,9.17
2018-10-21T20:56:22.148Z,9.40
2018-10-21T20:58:56.444Z,9.17
2018-10-21T21:01:30.776Z,9.93
2018-10-21T21:04:05.676Z,9.50
2018-10-21T21:06:40.414Z,9.17
2018-10-21T21:09:14.878Z,8.90
2018-10-21T21:11:49.383Z,9.13
2018-10-21T21:14:25.164Z,9.50
2018-10-21T21:16:59.931Z,10.10
2018-10-21T21:19:34.993Z,9.57
2018-10-21T21:22:09.900Z,9.83
2018-10-21T21:24:44.452Z,9.57
2018-10-21T21:27:18.909Z,10.50
2018-10-21T21:29:53.830Z,9.97
2018-10-21T21:32:28.525Z,9.80
2018-10-21T21:35:02.873Z,9.47
2018-10-21T21:37:37.728Z,9.83
2018-10-21T21:40:12.142Z,10.03
2018-10-21T21:42:46.829Z,9.50
2018-10-21T21:45:21.379Z,9.17
2018-10-21T21:47:55.883Z,9.73
2018-10-21T21:50:31.092Z,10.00
2018-10-21T21:53:05.852Z,9.53
2018-10-21T21:55:40.488Z,9.50
2018-10-21T21:58:15.392Z,9.90
2018-10-21T22:00:50.159Z,9.80
2018-10-21T22:03:25.387Z,9.70
2018-10-21T22:06:00.132Z,10.00
2018-10-21T22:08:36.048Z,9.80
2018-10-21T22:11:10.951Z,9.70
2018-10-21T22:13:45.877Z,10.40
2018-10-21T22:16:25.567Z,9.73
2018-10-21T22:19:01.433Z,9.80
2018-10-21T22:21:36.699Z,9.80
2018-10-21T22:24:11.330Z,10.53
2018-10-21T22:26:46.060Z,10.13
2018-10-21T22:29:21.211Z,9.73
2018-10-21T22:31:56.268Z,9.50
2018-10-21T22:34:31.021Z,10.43
2018-10-21T22:37:06.021Z,9.87
2018-10-21T22:39:43.983Z,9.60
2018-10-21T22:42:18.918Z,10.47
2018-10-21T22:44:53.479Z,9.30
2018-10-21T22:47:27.953Z,9.30
2018-10-21T22:50:03.980Z,9.50
2018-10-21T22:52:38.525Z,10.27
2018-10-21T22:55:13.296Z,10.63
2018-10-21T22:57:47.812Z,9.57
2018-10-21T23:00:22.479Z,10.07
2018-10-21T23:02:57.155Z,9.50
2018-10-21T23:05:33.296Z,9.50
2018-10-21T23:08:07.937Z,9.83
2018-10-21T23:10:43.800Z,9.77
2018-10-21T23:13:19.070Z,10.27
2018-10-21T23:15:53.798Z,10.30
2018-10-21T23:18:28.358Z,10.40
2018-10-21T23:21:03.912Z,10.30
2018-10-21T23:23:38.736Z,10.10
2018-10-21T23:26:13.530Z,10.10
2018-10-21T23:28:48.411Z,10.43
2018-10-21T23:31:22.684Z,11.50
2018-10-21T23:33:57.838Z,10.63
2018-10-21T23:36:32.719Z,11.17
2018-10-21T23:39:07.363Z,10.30
2018-10-21T23:41:41.932Z,10.90
2018-10-21T23:44:16.558Z,11.10
2018-10-21T23:46:51.348Z,10.40
2018-10-21T23:49:26.226Z,10.10
2018-10-21T23:52:01.108Z,10.27
2018-10-21T23:54:35.950Z,10.00
2018-10-21T23:57:10.271Z,10.30
2018-10-21T23:59:45.124Z,9.90
